Time;durP1;ratioP1;P1;durP2;ratioP2;P2;SDS_P1;SDS_P2;PMS_P1;PMS_P2;Temp;Humidity;BMP_temperature;BMP_pressure;BME280_temperature;BME280_humidity;BME280_pressure;Samples;Min_cycle;Max_cycle;Signal;HPM_P1;HPM_P2
2023/05/08 08:06:10;;;;;;;39.95;36.15;;;;;;;15.07;100.00;101925.56;5063169;28;20429;-69
2023/05/08 08:08:35;;;;;;;36.80;32.95;;;;;;;15.04;100.00;101928.75;5067897;28;20041;-74
2023/05/08 08:11:00;;;;;;;35.25;31.88;;;;;;;15.11;100.00;101930.56;5064227;28;20682;-72
2023/05/08 08:13:26;;;;;;;34.35;31.02;;;;;;;15.10;100.00;101934.34;5046427;28;20104;-72
2023/05/08 08:15:51;;;;;;;35.80;32.33;;;;;;;15.22;100.00;101933.38;5049089;28;20025;-73
2023/05/08 08:18:16;;;;;;;35.80;32.17;;;;;;;15.20;100.00;101934.66;5048981;28;20029;-75
2023/05/08 08:20:43;;;;;;;35.80;32.20;;;;;;;15.27;100.00;101924.50;5045345;28;20427;-70
2023/05/08 08:23:08;;;;;;;35.90;32.10;;;;;;;15.33;100.00;101925.47;5068311;28;20053;-72
2023/05/08 08:25:33;;;;;;;34.35;31.05;;;;;;;15.37;100.00;101926.69;5068893;28;20067;-73
2023/05/08 08:27:59;;;;;;;35.17;31.55;;;;;;;15.47;100.00;101926.94;5069630;28;20128;-75
2023/05/08 08:30:24;;;;;;;32.95;29.67;;;;;;;15.48;100.00;101925.06;5067549;28;20036;-70
2023/05/08 08:32:49;;;;;;;33.20;30.10;;;;;;;15.50;100.00;101918.28;5068185;28;20029;-72
2023/05/08 08:35:15;;;;;;;32.45;29.35;;;;;;;15.53;100.00;101923.28;5061770;28;20095;-73
2023/05/08 08:37:40;;;;;;;33.15;30.02;;;;;;;15.60;100.00;101915.84;5063955;28;20506;-71
2023/05/08 08:40:06;;;;;;;29.92;27.02;;;;;;;15.69;100.00;101919.06;5053878;28;20108;-71
2023/05/08 08:42:32;;;;;;;39.42;29.13;;;;;;;15.71;100.00;101906.00;5062557;28;20028;-70
2023/05/08 08:44:57;;;;;;;33.72;30.35;;;;;;;15.87;100.00;101917.38;5062256;28;20076;-73
2023/05/08 08:47:31;;;;;;;29.55;26.75;;;;;;;15.91;100.00;101913.09;5044369;28;20033;-71
2023/05/08 08:50:02;;;;;;;30.30;27.08;;;;;;;15.95;100.00;101919.75;5051064;28;20029;-73
2023/05/08 08:53:05;;;;;;;29.77;26.65;;;;;;;16.10;100.00;101922.03;5056805;28;20044;-74
2023/05/08 08:55:32;;;;;;;29.00;26.30;;;;;;;16.13;100.00;101921.56;5043485;28;20592;-71
2023/05/08 08:58:07;;;;;;;29.67;26.73;;;;;;;16.23;100.00;101920.97;5047602;28;20102;-73
2023/05/08 09:00:36;;;;;;;30.50;27.50;;;;;;;16.24;100.00;101922.63;5044067;28;20113;-74
2023/05/08 09:03:04;;;;;;;30.85;27.83;;;;;;;16.25;100.00;101924.31;5038076;28;20037;-74
2023/05/08 09:05:30;;;;;;;29.63;26.70;;;;;;;16.28;100.00;101923.81;5066011;28;20041;-77
2023/05/08 09:07:57;;;;;;;32.00;28.90;;;;;;;16.30;100.00;101927.13;5045168;28;20032;-71
2023/05/08 09:10:23;;;;;;;31.77;28.48;;;;;;;16.31;100.00;101934.28;5045283;28;20029;-75
2023/05/08 09:12:48;;;;;;;32.00;28.80;;;;;;;16.30;100.00;101928.00;5040385;28;20107;-78
2023/05/08 09:15:14;;;;;;;34.53;31.20;;;;;;;16.36;100.00;101930.81;5047888;28;20112;-76
2023/05/08 09:17:39;;;;;;;35.53;31.95;;;;;;;16.31;100.00;101939.75;5031280;28;20378;-74
2023/05/08 09:20:06;;;;;;;33.97;30.77;;;;;;;16.35;100.00;101927.28;5040095;28;20104;-74
2023/05/08 09:22:34;;;;;;;35.10;31.70;;;;;;;16.42;100.00;101936.16;5030714;28;20025;-74
2023/05/08 09:25:01;;;;;;;36.28;32.63;;;;;;;16.43;100.00;101931.56;5035362;28;20029;-76
2023/05/08 09:27:28;;;;;;;35.78;32.17;;;;;;;16.44;100.00;101928.56;5035734;28;20112;-76
2023/05/08 09:30:01;;;;;;;34.90;31.33;;;;;;;16.45;100.00;101930.22;5033882;28;20025;-72
2023/05/08 09:32:30;;;;;;;35.80;32.30;;;;;;;16.56;100.00;101927.72;5036615;28;20033;-74
2023/05/08 09:34:56;;;;;;;36.72;33.08;;;;;;;16.55;100.00;101926.09;5049869;28;20048;-73
2023/05/08 09:37:21;;;;;;;38.40;34.67;;;;;;;16.56;100.00;101931.31;5033017;28;20026;-73
2023/05/08 09:39:47;;;;;;;40.78;36.58;;;;;;;16.53;100.00;101931.78;5033172;28;20034;-74
2023/05/08 09:42:13;;;;;;;42.47;38.00;;;;;;;16.43;100.00;101926.91;5034885;28;20123;-74
2023/05/08 09:44:52;;;;;;;43.05;38.50;;;;;;;16.40;100.00;101929.28;5033793;28;20026;-75
2023/05/08 09:47:22;;;;;;;45.67;39.67;;;;;;;16.35;100.00;101926.44;5034322;28;20037;-72
2023/05/08 09:49:58;;;;;;;44.28;39.15;;;;;;;16.38;100.00;101929.53;5039170;28;20487;-71
2023/05/08 09:52:23;;;;;;;46.40;41.30;;;;;;;16.41;100.00;101920.00;5032216;28;20034;-76
2023/05/08 09:55:08;;;;;;;46.70;41.60;;;;;;;16.48;100.00;101924.28;5038841;28;20380;-76
2023/05/08 09:57:38;;;;;;;46.22;41.28;;;;;;;16.47;100.00;101930.84;5048859;28;20033;-72
2023/05/08 10:00:11;;;;;;;45.28;40.40;;;;;;;16.48;100.00;101934.38;5054361;28;20521;-71
2023/05/08 10:02:38;;;;;;;45.95;40.88;;;;;;;16.52;100.00;101932.84;5033594;28;20035;-73
2023/05/08 10:05:22;;;;;;;46.72;41.63;;;;;;;16.48;100.00;101935.22;5052465;28;20087;-76
2023/05/08 10:07:48;;;;;;;45.08;40.25;;;;;;;16.46;100.00;101931.91;5043994;28;20044;-72
2023/05/08 10:10:13;;;;;;;45.72;40.67;;;;;;;16.45;100.00;101929.41;5034402;28;20025;-74
2023/05/08 10:12:40;;;;;;;51.63;41.70;;;;;;;16.42;100.00;101929.88;5034101;28;20412;-69
2023/05/08 10:15:06;;;;;;;46.25;40.40;;;;;;;16.45;100.00;101930.22;5034555;28;20029;-70
2023/05/08 10:17:49;;;;;;;47.17;41.25;;;;;;;16.48;100.00;101937.13;5033877;28;20370;-72
2023/05/08 10:20:18;;;;;;;46.92;41.88;;;;;;;16.55;100.00;101934.28;5034268;28;20112;-71
2023/05/08 10:22:45;;;;;;;48.28;41.42;;;;;;;16.58;100.00;101936.53;5031364;28;20426;-72
2023/05/08 10:25:16;;;;;;;49.88;43.05;;;;;;;16.60;100.00;101942.59;5038588;28;20116;-73
2023/05/08 10:27:46;;;;;;;46.67;41.47;;;;;;;16.64;100.00;101941.88;5030295;28;20067;-72
2023/05/08 10:30:13;;;;;;;49.35;42.50;;;;;;;16.70;100.00;101934.63;5032470;28;20280;-72
2023/05/08 10:32:43;;;;;;;48.80;43.50;;;;;;;16.73;100.00;101945.06;5030584;28;20037;-74
2023/05/08 10:35:11;;;;;;;51.55;42.67;;;;;;;16.76;100.00;101946.50;5033968;28;20029;-71
2023/05/08 10:37:38;;;;;;;48.78;42.70;;;;;;;16.72;100.00;101937.94;5033798;28;20041;-73
2023/05/08 10:40:05;;;;;;;50.72;41.92;;;;;;;16.70;100.00;101940.09;5035743;28;20397;-72
2023/05/08 10:42:32;;;;;;;50.58;41.95;;;;;;;16.73;100.00;101934.13;5052100;28;20025;-76
2023/05/08 10:44:58;;;;;;;45.53;39.90;;;;;;;16.72;100.00;101934.38;5052374;28;20488;-75
2023/05/08 10:47:32;;;;;;;47.47;39.70;;;;;;;16.70;100.00;101941.97;5052264;28;20047;-71
2023/05/08 10:50:23;;;;;;;45.17;38.55;;;;;;;16.67;100.00;101937.84;5053512;28;20029;-72
2023/05/08 10:52:56;;;;;;;52.65;44.08;;;;;;;16.74;100.00;101933.06;5051748;28;20032;-75
2023/05/08 10:55:21;;;;;;;53.40;46.00;;;;;;;16.78;100.00;101933.41;5046239;28;20041;-73
2023/05/08 10:58:09;;;;;;;55.38;46.30;;;;;;;16.87;100.00;101931.19;5053438;28;20041;-73
2023/05/08 11:00:58;;;;;;;55.42;44.88;;;;;;;16.96;100.00;101933.28;5049313;28;20040;-74
2023/05/08 11:03:27;;;;;;;50.10;43.28;;;;;;;17.00;100.00;101926.25;5052066;28;20025;-74
2023/05/08 11:05:54;;;;;;;51.40;43.75;;;;;;;17.06;100.00;101929.94;5052693;28;20063;-70
2023/05/08 11:08:23;;;;;;;50.83;42.90;;;;;;;17.14;100.00;101932.28;5040783;28;20364;-73
2023/05/08 11:11:01;;;;;;;55.50;44.20;;;;;;;17.28;100.00;101926.53;5031950;28;20060;-72
2023/05/08 11:13:29;;;;;;;51.65;43.75;;;;;;;17.31;100.00;101926.03;5033133;28;20025;-69
2023/05/08 11:15:56;;;;;;;53.10;43.00;;;;;;;17.27;100.00;101919.38;5031868;28;20021;-70
2023/05/08 11:18:21;;;;;;;58.08;42.85;;;;;;;17.32;100.00;101924.97;5033175;28;20136;-72
2023/05/08 11:20:57;;;;;;;49.78;41.70;;;;;;;17.38;100.00;101915.78;5032775;28;20509;-74
2023/05/08 11:23:26;;;;;;;49.60;41.83;;;;;;;17.30;100.00;101916.16;5032112;28;20120;-71
2023/05/08 11:26:12;;;;;;;49.47;42.35;;;;;;;17.35;100.00;101908.06;5031324;28;20120;-72
2023/05/08 11:28:57;;;;;;;47.65;40.72;;;;;;;17.43;100.00;101907.66;5034894;28;20576;-71
2023/05/08 11:31:23;;;;;;;45.65;40.15;;;;;;;17.44;100.00;101906.59;5037276;28;20060;-70
2023/05/08 11:33:48;;;;;;;47.33;40.85;;;;;;;17.59;100.00;101897.00;5031303;28;20380;-73
2023/05/08 11:36:16;;;;;;;44.03;39.20;;;;;;;17.66;100.00;101901.25;5036256;28;20120;-70
2023/05/08 11:38:42;;;;;;;46.55;39.50;;;;;;;17.77;100.00;101901.41;5036855;28;20087;-74
2023/05/08 11:41:20;;;;;;;43.38;37.45;;;;;;;17.83;100.00;101897.69;5011608;28;20022;-73
2023/05/08 11:44:01;;;;;;;46.10;38.22;;;;;;;17.77;100.00;101899.53;5030052;28;20472;-75
2023/05/08 11:46:49;;;;;;;44.95;38.75;;;;;;;17.76;100.00;101889.63;5032724;28;20112;-73
2023/05/08 11:49:16;;;;;;;42.88;36.45;;;;;;;17.81;100.00;101895.19;5032551;28;20132;-76
2023/05/08 11:51:44;;;;;;;40.75;35.08;;;;;;;17.85;100.00;101899.09;5039940;28;20120;-76
2023/05/08 11:54:16;;;;;;;38.65;34.55;;;;;;;17.91;100.00;101891.84;5052576;28;20109;-76
2023/05/08 11:56:44;;;;;;;45.30;36.22;;;;;;;18.09;100.00;101893.50;5050993;28;20029;-74
2023/05/08 11:59:10;;;;;;;38.60;32.88;;;;;;;18.25;100.00;101889.06;5039214;28;20029;-75
2023/05/08 12:01:35;;;;;;;36.13;31.45;;;;;;;18.34;100.00;101879.34;5013726;28;20057;-75
2023/05/08 12:04:06;;;;;;;33.47;29.98;;;;;;;18.34;100.00;101886.72;5012447;28;20029;-71
2023/05/08 12:06:33;;;;;;;36.38;30.35;;;;;;;18.35;100.00;101878.25;5020124;28;20045;-75
2023/05/08 12:09:04;;;;;;;30.50;27.20;;;;;;;18.36;100.00;101888.13;5032716;28;20035;-73
2023/05/08 12:11:30;;;;;;;34.80;30.30;;;;;;;18.39;100.00;101882.16;5032278;28;20021;-75
2023/05/08 12:13:55;;;;;;;37.03;29.23;;;;;;;18.44;100.00;101873.16;5030711;28;20075;-72
2023/05/08 12:16:23;;;;;;;34.28;28.52;;;;;;;18.74;100.00;101875.47;5032834;28;20030;-72
2023/05/08 12:18:50;;;;;;;28.80;24.73;;;;;;;18.87;100.00;101877.06;5031753;28;20030;-73
2023/05/08 12:21:16;;;;;;;29.52;25.73;;;;;;;18.88;100.00;101875.94;5033777;28;20488;-74
2023/05/08 12:23:41;;;;;;;28.00;24.52;;;;;;;18.83;100.00;101875.06;5049334;28;20033;-74
2023/05/08 12:26:07;;;;;;;29.85;24.45;;;;;;;18.86;100.00;101878.13;5051689;28;20379;-74
2023/05/08 12:28:33;;;;;;;27.73;23.25;;;;;;;18.97;100.00;101868.09;5053054;28;20088;-73
2023/05/08 12:31:01;;;;;;;23.90;20.25;;;;;;;19.16;100.00;101863.13;5036641;28;20461;-73
2023/05/08 12:33:27;;;;;;;20.83;17.65;;;;;;;19.21;100.00;101870.56;5032594;28;20037;-72
2023/05/08 12:35:54;;;;;;;18.50;15.60;;;;;;;19.34;100.00;101861.06;5028618;28;20043;-73
2023/05/08 12:38:27;;;;;;;19.42;15.80;;;;;;;19.29;100.00;101870.94;5031743;28;20045;-72
2023/05/08 12:40:55;;;;;;;19.55;16.85;;;;;;;19.15;100.00;101869.69;5036939;28;20038;-78
2023/05/08 12:43:30;;;;;;;22.48;17.35;;;;;;;19.10;100.00;101864.16;5032040;28;20099;-74
2023/05/08 12:45:56;;;;;;;24.33;17.58;;;;;;;19.17;100.00;101851.03;5030619;28;20064;-73
2023/05/08 12:48:21;;;;;;;22.92;18.10;;;;;;;19.25;100.00;101852.50;5031871;28;20385;-75
2023/05/08 12:50:47;;;;;;;20.60;17.00;;;;;;;19.22;100.00;101848.34;5032120;28;20036;-75
2023/05/08 12:53:15;;;;;;;22.35;16.83;;;;;;;19.26;100.00;101846.75;5034492;28;20419;-76
2023/05/08 12:55:51;;;;;;;19.33;15.55;;;;;;;19.27;100.00;101842.91;5035247;28;20021;-75
2023/05/08 12:58:17;;;;;;;18.92;15.80;;;;;;;19.25;100.00;101844.28;5042841;28;20139;-75
2023/05/08 13:00:44;;;;;;;21.55;16.30;;;;;;;19.20;100.00;101834.03;5032958;28;20029;-74
2023/05/08 13:03:20;;;;;;;22.48;17.92;;;;;;;19.18;100.00;101832.66;5034724;28;20124;-72
2023/05/08 13:05:45;;;;;;;22.67;16.88;;;;;;;19.19;100.00;101829.66;5035004;28;20104;-73
2023/05/08 13:08:11;;;;;;;23.40;18.75;;;;;;;19.22;100.00;101831.03;5036772;28;20037;-74
2023/05/08 13:10:50;;;;;;;24.33;18.27;;;;;;;19.39;100.00;101839.19;5045092;28;20042;-75
2023/05/08 13:13:21;;;;;;;22.55;18.02;;;;;;;19.45;100.00;101832.66;5048206;28;20116;-72
2023/05/08 13:15:50;;;;;;;;;;;;;;;19.54;100.00;101836.56;5037066;28;20025;-75
2023/05/08 13:18:16;;;;;;;27.02;22.02;;;;;;;19.29;100.00;101834.41;5038438;28;19948;-72
2023/05/08 13:20:42;;;;;;;27.48;22.33;;;;;;;19.29;100.00;101835.25;5032142;28;20378;-73
2023/05/08 13:23:08;;;;;;;28.52;21.88;;;;;;;19.30;100.00;101830.59;5035114;28;20028;-73
2023/05/08 13:25:35;;;;;;;30.13;23.20;;;;;;;19.27;100.00;101829.19;5038328;28;20122;-72
2023/05/08 13:28:00;;;;;;;29.45;23.00;;;;;;;19.41;100.00;101837.00;5054993;28;20035;-74
2023/05/08 13:30:26;;;;;;;30.85;23.00;;;;;;;19.39;100.00;101828.22;5051810;28;20029;-74
2023/05/08 13:32:51;;;;;;;31.27;23.92;;;;;;;19.37;100.00;101824.88;5035022;28;20061;-74
2023/05/08 13:35:18;;;;;;;27.88;23.00;;;;;;;19.33;100.00;101824.59;5035931;28;20040;-76
2023/05/08 13:37:44;;;;;;;32.88;25.73;;;;;;;19.29;100.00;101821.53;5052475;28;20033;-76
2023/05/08 13:40:10;;;;;;;33.90;24.38;;;;;;;19.23;100.00;101813.50;5055245;28;20055;-72
2023/05/08 13:42:36;;;;;;;31.67;24.35;;;;;;;19.27;100.00;101817.41;5054832;28;20313;-73
2023/05/08 13:45:02;;;;;;;34.17;24.92;;;;;;;19.37;100.00;101814.75;5052905;28;20282;-74
2023/05/08 13:47:27;;;;;;;34.90;24.98;;;;;;;19.39;100.00;101814.50;5018014;28;20112;-74
2023/05/08 13:49:53;;;;;;;34.42;24.77;;;;;;;19.37;100.00;101816.66;5013580;28;20125;-73
2023/05/08 13:52:18;;;;;;;34.30;24.35;;;;;;;19.34;100.00;101819.91;5046351;28;20029;-76
2023/05/08 13:54:43;;;;;;;31.50;24.95;;;;;;;19.33;100.00;101812.78;5054458;28;20068;-72
2023/05/08 13:57:09;;;;;;;33.17;25.23;;;;;;;19.38;100.00;101815.56;5054380;28;20476;-74
2023/05/08 13:59:35;;;;;;;33.65;24.83;;;;;;;19.37;100.00;101809.25;5054343;28;20033;-76
2023/05/08 14:02:00;;;;;;;34.17;25.02;;;;;;;19.35;100.00;101803.19;5029457;28;20088;-72
2023/05/08 14:04:26;;;;;;;34.78;24.88;;;;;;;19.29;100.00;101805.06;5034607;28;20054;-73
2023/05/08 14:06:51;;;;;;;38.55;27.05;;;;;;;19.36;100.00;101810.34;5038558;28;20463;-72
2023/05/08 14:09:16;;;;;;;34.72;26.17;;;;;;;19.41;100.00;101804.06;5038694;28;20040;-76
2023/05/08 14:11:42;;;;;;;37.85;26.75;;;;;;;19.55;100.00;101797.06;5036431;28;20029;-75
2023/05/08 14:14:07;;;;;;;36.53;26.75;;;;;;;19.59;100.00;101800.09;5032351;28;20530;-78
2023/05/08 14:16:32;;;;;;;34.65;26.17;;;;;;;19.63;100.00;101795.75;5040504;28;20036;-72
2023/05/08 14:18:58;;;;;;;38.72;27.08;;;;;;;19.65;100.00;101794.38;5047594;28;20025;-76
2023/05/08 14:21:41;;;;;;;;;;;;;;;;;;;;;
2023/05/08 14:24:07;;;;;;;38.50;27.50;;;;;;;19.75;100.00;101792.81;5033201;28;20021;-75
2023/05/08 14:26:33;;;;;;;37.08;27.33;;;;;;;19.82;100.00;101796.16;5031085;28;20120;-73
2023/05/08 14:29:00;;;;;;;37.25;27.08;;;;;;;19.89;100.00;101793.22;5031702;28;20036;-73
2023/05/08 14:31:26;;;;;;;35.75;25.80;;;;;;;19.96;100.00;101797.38;5032376;28;20021;-74
2023/05/08 14:33:51;;;;;;;36.63;25.92;;;;;;;20.03;95.17;101801.81;5032799;28;20453;-74
2023/05/08 14:36:16;;;;;;;38.88;26.17;;;;;;;20.02;100.00;101798.25;5048982;28;20503;-72
2023/05/08 14:38:42;;;;;;;33.95;26.02;;;;;;;19.98;96.06;101794.34;5051868;28;20033;-74
2023/05/08 14:41:07;;;;;;;36.47;26.02;;;;;;;19.91;95.23;101791.81;5052489;28;20032;-71
2023/05/08 14:43:32;;;;;;;34.95;26.15;;;;;;;19.82;95.33;101799.75;5053779;28;20040;-75
2023/05/08 14:45:58;;;;;;;39.40;26.88;;;;;;;19.75;95.78;101795.56;5053366;28;20537;-75
2023/05/08 14:48:23;;;;;;;36.42;26.40;;;;;;;19.71;100.00;101794.41;5050237;28;20528;-75
2023/05/08 14:50:48;;;;;;;36.00;26.30;;;;;;;19.66;100.00;101793.28;5039155;28;20036;-72
2023/05/08 14:53:14;;;;;;;42.72;28.35;;;;;;;19.60;98.73;101797.09;5053186;28;20032;-75
2023/05/08 14:55:39;;;;;;;38.50;27.88;;;;;;;19.60;100.00;101794.34;5054053;28;20054;-74
2023/05/08 14:58:05;;;;;;;37.15;25.45;;;;;;;19.59;100.00;101789.94;5052296;28;20112;-72
2023/05/08 15:00:30;;;;;;;37.10;26.25;;;;;;;19.55;100.00;101797.06;5039489;28;20373;-71
2023/05/08 15:02:55;;;;;;;38.25;27.00;;;;;;;19.47;100.00;101792.88;5033421;28;20040;-71
2023/05/08 15:05:21;;;;;;;36.38;25.73;;;;;;;19.46;100.00;101795.84;5030257;28;20049;-71
2023/05/08 15:07:48;;;;;;;37.53;27.50;;;;;;;19.38;100.00;101799.09;5028495;28;20055;-71
2023/05/08 15:10:14;;;;;;;38.55;27.95;;;;;;;19.35;100.00;101796.88;5032237;28;20033;-72
2023/05/08 15:12:39;;;;;;;42.88;28.05;;;;;;;19.33;100.00;101790.84;5032824;28;20033;-73
2023/05/08 15:15:05;;;;;;;38.88;25.65;;;;;;;19.29;100.00;101785.88;5029108;28;20041;-76
2023/05/08 15:17:34;;;;;;;38.28;26.45;;;;;;;19.31;100.00;101774.63;5035942;28;20033;-75
2023/05/08 15:19:59;;;;;;;38.38;25.17;;;;;;;19.37;100.00;101781.81;5032936;28;20036;-75
2023/05/08 15:22:24;;;;;;;37.20;25.30;;;;;;;19.43;100.00;101775.28;5033195;28;20456;-73
2023/05/08 15:24:50;;;;;;;35.72;24.77;;;;;;;19.53;99.07;101773.69;5031838;28;20427;-75
2023/05/08 15:27:15;;;;;;;34.63;23.73;;;;;;;19.64;94.87;101779.00;5033101;28;20124;-80
2023/05/08 15:29:40;;;;;;;34.58;23.38;;;;;;;19.64;88.93;101784.50;5031926;28;20037;-80
2023/05/08 15:32:05;;;;;;;34.05;23.15;;;;;;;19.62;92.87;101783.09;5030331;28;20472;-77
2023/05/08 15:34:31;;;;;;;36.05;23.88;;;;;;;19.64;97.75;101779.00;5027899;28;20516;-78
2023/05/08 15:36:56;;;;;;;32.45;23.05;;;;;;;19.70;92.23;101779.03;5032486;28;20104;-76
2023/05/08 15:39:21;;;;;;;33.90;23.38;;;;;;;19.67;87.62;101777.63;5031882;28;20025;-75
2023/05/08 15:41:47;;;;;;;34.35;23.02;;;;;;;19.64;90.97;101781.75;5032916;28;20041;-75
2023/05/08 15:44:13;;;;;;;33.80;23.17;;;;;;;19.68;92.23;101775.72;5033059;28;20460;-75
2023/05/08 15:46:38;;;;;;;31.60;22.65;;;;;;;19.70;85.68;101781.78;5039420;28;20083;-78
2023/05/08 15:49:07;;;;;;;34.00;23.02;;;;;;;19.72;89.05;101779.59;5056606;28;20059;-80
2023/05/08 15:51:32;;;;;;;33.53;22.08;;;;;;;19.72;84.52;101777.69;5055404;28;20032;-79
2023/05/08 15:53:57;;;;;;;33.08;22.10;;;;;;;19.74;89.71;101778.22;5045642;28;20017;-77
2023/05/08 15:56:55;;;;;;;32.17;22.20;;;;;;;19.82;90.23;101780.53;5035808;28;20048;-76
2023/05/08 15:59:20;;;;;;;33.90;22.95;;;;;;;19.76;85.92;101781.56;5031631;28;20107;-75
2023/05/08 16:01:45;;;;;;;34.53;23.20;;;;;;;19.79;91.76;101789.31;5030585;28;20529;-76
